Toledo, OH

10:00 PM EDT on May 05, 2015 (GMT -0400)
OHDOT | | Change Station
CLOSE
Current Station
Personal Weather Station
Location: Toledo, OH
Elevation: 582 ft
Nearby Weather Stations

Elev 582 ft 41.66 °N, 83.51 °W | Updated 30 minutes ago

Overcast
Overcast
52 °F
Feels Like 52 °F
N
12
Wind Variable Wind from ENE
Gusts 20.0 mph

Today
High -- | Low -- °F
--% Chance of Precip.
Yesterday
High -- | Low -- °F
Precip. -- in
6:26 AM 8:36 PM
Waning Gibbous, 96% visible
Pressure 30.27 in
Visibility 9.0 miles
Clouds Overcast 800 ft
Dew Point 51 °F
Humidity 95%
Rainfall in
Snow Depth Not available.
UV 0 out of 12
Pollen 1.90 out of 12
Air Quality Not available.
Flu Activity Regional
METAR KTDZ 060153Z AUTO 07009KT 9SM OVC008 11/09 A3027 RMK AO2 SLP251 T01110094 TSNO

More Conditions Fewer Conditions

Pressure 30.27 in
Visibility 9.0 miles
Clouds Overcast 800 ft
Dew Point 51 °F
Humidity 95%
Rainfall in
Snow Depth Not available.
UV 0 out of 12
Pollen 1.90 out of 12
Air Quality Not available.
Flu Activity Regional
METAR KTDZ 060153Z AUTO 07009KT 9SM OVC008 11/09 A3027 RMK AO2 SLP251 T01110094 TSNO

More Conditions Fewer Conditions

10-Day Weather Forecast

Almanac

Astronomy

May. 05, 2015 Rise Set
Actual Time
Civil Twilight
Nautical Twilight
Astronomical Twilight
Moon
Length of Visible Light
Length of Day
Tomorrow will be .
, % of the Moon is Illuminated

Today's Extremes

State Highs State Lows

Community

WunderPhotos

Upload Photos

1,819,040 photos uploaded!

WunderBlogs® & News

Nearby

Air Quality

  Air Quality AQ Index Pollutant
Not available.

Snow Depth

Station Depth Elevation

Earthquake Activity

City Distance Mag. Time & Date
Minimum magnitude displayed is 2.5.

Coastal Water Temperatures

Place Temperature

Stations

Nearby Weather Stations

Station Location Temp. Windchill Dew Point Humidity Wind Precip. Elev Updated Type